sensor_id;sensor_type;location;lat;lon;timestamp;P1;durP1;ratioP1;P2;durP2;ratioP2
51612;SDS011;37694;51.748;14.326;2022-12-11T00:02:03;5.28;;;4.20;;
51612;SDS011;37694;51.748;14.326;2022-12-11T00:04:29;4.43;;;3.85;;
51612;SDS011;37694;51.748;14.326;2022-12-11T00:06:54;7.25;;;4.78;;
51612;SDS011;37694;51.748;14.326;2022-12-11T00:09:20;4.93;;;4.43;;
51612;SDS011;37694;51.748;14.326;2022-12-11T00:11:46;5.10;;;4.50;;
51612;SDS011;37694;51.748;14.326;2022-12-11T00:14:13;4.70;;;4.25;;
51612;SDS011;37694;51.748;14.326;2022-12-11T00:16:39;4.22;;;3.80;;
51612;SDS011;37694;51.748;14.326;2022-12-11T00:19:05;4.47;;;4.07;;
51612;SDS011;37694;51.748;14.326;2022-12-11T00:21:31;5.13;;;4.30;;
51612;SDS011;37694;51.748;14.326;2022-12-11T00:23:57;4.78;;;4.07;;
51612;SDS011;37694;51.748;14.326;2022-12-11T00:26:23;4.80;;;4.30;;
51612;SDS011;37694;51.748;14.326;2022-12-11T00:28:51;6.28;;;4.00;;
51612;SDS011;37694;51.748;14.326;2022-12-11T00:31:19;5.32;;;4.40;;
51612;SDS011;37694;51.748;14.326;2022-12-11T00:33:45;4.35;;;3.95;;
51612;SDS011;37694;51.748;14.326;2022-12-11T00:36:13;4.65;;;4.20;;
51612;SDS011;37694;51.748;14.326;2022-12-11T00:38:42;4.28;;;3.88;;
51612;SDS011;37694;51.748;14.326;2022-12-11T00:41:08;6.88;;;4.15;;
51612;SDS011;37694;51.748;14.326;2022-12-11T00:43:35;5.07;;;3.88;;
51612;SDS011;37694;51.748;14.326;2022-12-11T00:46:01;5.78;;;4.38;;
51612;SDS011;37694;51.748;14.326;2022-12-11T00:48:27;5.47;;;4.63;;
51612;SDS011;37694;51.748;14.326;2022-12-11T00:50:53;4.75;;;4.05;;
51612;SDS011;37694;51.748;14.326;2022-12-11T00:53:19;6.32;;;4.07;;
51612;SDS011;37694;51.748;14.326;2022-12-11T00:55:44;7.65;;;4.65;;
51612;SDS011;37694;51.748;14.326;2022-12-11T00:58:10;4.97;;;3.95;;
51612;SDS011;37694;51.748;14.326;2022-12-11T01:00:37;4.70;;;4.15;;
51612;SDS011;37694;51.748;14.326;2022-12-11T01:03:03;5.10;;;4.25;;
51612;SDS011;37694;51.748;14.326;2022-12-11T01:05:30;4.72;;;4.18;;
51612;SDS011;37694;51.748;14.326;2022-12-11T01:07:56;5.10;;;3.85;;
51612;SDS011;37694;51.748;14.326;2022-12-11T01:10:22;4.22;;;3.80;;
51612;SDS011;37694;51.748;14.326;2022-12-11T01:12:48;5.53;;;4.22;;
51612;SDS011;37694;51.748;14.326;2022-12-11T01:15:20;6.35;;;4.28;;
51612;SDS011;37694;51.748;14.326;2022-12-11T01:17:48;4.50;;;3.97;;
51612;SDS011;37694;51.748;14.326;2022-12-11T01:20:14;6.15;;;4.82;;
51612;SDS011;37694;51.748;14.326;2022-12-11T01:22:40;4.40;;;3.95;;
51612;SDS011;37694;51.748;14.326;2022-12-11T01:25:06;4.22;;;3.70;;
51612;SDS011;37694;51.748;14.326;2022-12-11T01:27:34;4.30;;;3.90;;
51612;SDS011;37694;51.748;14.326;2022-12-11T01:30:00;4.50;;;4.10;;
51612;SDS011;37694;51.748;14.326;2022-12-11T01:32:26;5.10;;;3.97;;
51612;SDS011;37694;51.748;14.326;2022-12-11T01:34:52;4.65;;;4.20;;
51612;SDS011;37694;51.748;14.326;2022-12-11T01:37:18;4.65;;;4.10;;
51612;SDS011;37694;51.748;14.326;2022-12-11T01:39:45;5.00;;;3.92;;
51612;SDS011;37694;51.748;14.326;2022-12-11T01:42:14;4.93;;;3.92;;
51612;SDS011;37694;51.748;14.326;2022-12-11T01:47:10;4.43;;;4.03;;
51612;SDS011;37694;51.748;14.326;2022-12-11T01:49:36;6.22;;;4.45;;
51612;SDS011;37694;51.748;14.326;2022-12-11T01:52:09;6.07;;;3.63;;
51612;SDS011;37694;51.748;14.326;2022-12-11T01:54:45;4.40;;;3.55;;
51612;SDS011;37694;51.748;14.326;2022-12-11T01:57:12;4.30;;;3.90;;
51612;SDS011;37694;51.748;14.326;2022-12-11T01:59:40;4.35;;;3.95;;
51612;SDS011;37694;51.748;14.326;2022-12-11T02:02:20;6.03;;;4.43;;
51612;SDS011;37694;51.748;14.326;2022-12-11T02:04:50;3.78;;;3.45;;
51612;SDS011;37694;51.748;14.326;2022-12-11T02:07:15;4.68;;;4.07;;
51612;SDS011;37694;51.748;14.326;2022-12-11T02:09:42;4.45;;;4.05;;
51612;SDS011;37694;51.748;14.326;2022-12-11T02:12:14;4.07;;;3.67;;
51612;SDS011;37694;51.748;14.326;2022-12-11T02:17:48;4.18;;;3.67;;
51612;SDS011;37694;51.748;14.326;2022-12-11T02:20:23;4.50;;;4.10;;
51612;SDS011;37694;51.748;14.326;2022-12-11T02:28:29;3.70;;;3.40;;
51612;SDS011;37694;51.748;14.326;2022-12-11T02:31:03;4.05;;;3.63;;
51612;SDS011;37694;51.748;14.326;2022-12-11T02:33:50;7.60;;;3.60;;
51612;SDS011;37694;51.748;14.326;2022-12-11T02:36:20;4.30;;;3.63;;
51612;SDS011;37694;51.748;14.326;2022-12-11T02:38:49;4.20;;;3.80;;
51612;SDS011;37694;51.748;14.326;2022-12-11T02:41:17;4.55;;;3.65;;
51612;SDS011;37694;51.748;14.326;2022-12-11T02:43:45;4.30;;;3.90;;
51612;SDS011;37694;51.748;14.326;2022-12-11T02:46:12;3.53;;;3.25;;
51612;SDS011;37694;51.748;14.326;2022-12-11T02:48:39;4.03;;;3.55;;
51612;SDS011;37694;51.748;14.326;2022-12-11T02:51:06;3.75;;;3.35;;
51612;SDS011;37694;51.748;14.326;2022-12-11T02:53:34;4.38;;;3.70;;
51612;SDS011;37694;51.748;14.326;2022-12-11T02:56:11;4.10;;;3.70;;
51612;SDS011;37694;51.748;14.326;2022-12-11T02:58:49;4.15;;;3.75;;
51612;SDS011;37694;51.748;14.326;2022-12-11T03:01:20;4.55;;;3.83;;
51612;SDS011;37694;51.748;14.326;2022-12-11T03:03:46;4.25;;;3.72;;
51612;SDS011;37694;51.748;14.326;2022-12-11T03:06:12;5.30;;;3.20;;
51612;SDS011;37694;51.748;14.326;2022-12-11T03:08:42;5.72;;;3.20;;
51612;SDS011;37694;51.748;14.326;2022-12-11T03:11:11;3.88;;;3.55;;
51612;SDS011;37694;51.748;14.326;2022-12-11T03:13:37;4.22;;;3.83;;
51612;SDS011;37694;51.748;14.326;2022-12-11T03:16:11;6.20;;;3.80;;
51612;SDS011;37694;51.748;14.326;2022-12-11T03:21:51;4.50;;;4.10;;
51612;SDS011;37694;51.748;14.326;2022-12-11T03:24:38;5.60;;;3.45;;
51612;SDS011;37694;51.748;14.326;2022-12-11T03:28:12;5.30;;;3.55;;
51612;SDS011;37694;51.748;14.326;2022-12-11T03:30:30;4.43;;;3.72;;
51612;SDS011;37694;51.748;14.326;2022-12-11T03:33:05;5.00;;;3.58;;
51612;SDS011;37694;51.748;14.326;2022-12-11T03:38:05;3.58;;;3.28;;
51612;SDS011;37694;51.748;14.326;2022-12-11T03:40:35;3.92;;;3.22;;
51612;SDS011;37694;51.748;14.326;2022-12-11T03:43:04;5.43;;;3.67;;
51612;SDS011;37694;51.748;14.326;2022-12-11T03:45:31;3.97;;;3.67;;
51612;SDS011;37694;51.748;14.326;2022-12-11T03:47:58;3.72;;;3.30;;
51612;SDS011;37694;51.748;14.326;2022-12-11T03:50:27;4.45;;;3.58;;
51612;SDS011;37694;51.748;14.326;2022-12-11T03:52:56;3.30;;;3.10;;
51612;SDS011;37694;51.748;14.326;2022-12-11T03:55:22;3.65;;;3.35;;
51612;SDS011;37694;51.748;14.326;2022-12-11T03:57:50;4.03;;;3.53;;
51612;SDS011;37694;51.748;14.326;2022-12-11T04:00:16;3.67;;;3.38;;
51612;SDS011;37694;51.748;14.326;2022-12-11T04:02:44;5.82;;;3.63;;
51612;SDS011;37694;51.748;14.326;2022-12-11T04:05:30;4.65;;;3.92;;
51612;SDS011;37694;51.748;14.326;2022-12-11T04:07:56;3.63;;;3.33;;
51612;SDS011;37694;51.748;14.326;2022-12-11T04:10:22;4.65;;;3.70;;
51612;SDS011;37694;51.748;14.326;2022-12-11T04:12:48;4.57;;;3.20;;
51612;SDS011;37694;51.748;14.326;2022-12-11T04:15:14;4.75;;;3.75;;
51612;SDS011;37694;51.748;14.326;2022-12-11T04:17:39;3.85;;;3.40;;
51612;SDS011;37694;51.748;14.326;2022-12-11T04:20:24;6.78;;;3.42;;
51612;SDS011;37694;51.748;14.326;2022-12-11T04:23:17;3.45;;;3.15;;
51612;SDS011;37694;51.748;14.326;2022-12-11T04:26:06;6.53;;;3.55;;
51612;SDS011;37694;51.748;14.326;2022-12-11T04:28:37;3.58;;;3.28;;
51612;SDS011;37694;51.748;14.326;2022-12-11T04:31:03;3.42;;;3.13;;
51612;SDS011;37694;51.748;14.326;2022-12-11T04:33:29;3.17;;;2.90;;
51612;SDS011;37694;51.748;14.326;2022-12-11T04:35:58;6.53;;;3.50;;
51612;SDS011;37694;51.748;14.326;2022-12-11T04:38:24;3.40;;;3.13;;
51612;SDS011;37694;51.748;14.326;2022-12-11T04:40:56;3.97;;;3.35;;
51612;SDS011;37694;51.748;14.326;2022-12-11T04:43:26;3.42;;;3.13;;
51612;SDS011;37694;51.748;14.326;2022-12-11T04:46:08;5.20;;;3.35;;
51612;SDS011;37694;51.748;14.326;2022-12-11T04:48:36;3.10;;;2.90;;
51612;SDS011;37694;51.748;14.326;2022-12-11T04:51:03;3.72;;;3.30;;
51612;SDS011;37694;51.748;14.326;2022-12-11T04:53:29;4.50;;;3.25;;
51612;SDS011;37694;51.748;14.326;2022-12-11T04:55:56;3.88;;;3.25;;
51612;SDS011;37694;51.748;14.326;2022-12-11T04:58:22;3.90;;;3.10;;
51612;SDS011;37694;51.748;14.326;2022-12-11T05:00:48;2.85;;;2.65;;
51612;SDS011;37694;51.748;14.326;2022-12-11T05:03:14;3.40;;;3.10;;
51612;SDS011;37694;51.748;14.326;2022-12-11T05:05:40;3.47;;;3.17;;
51612;SDS011;37694;51.748;14.326;2022-12-11T05:08:11;3.58;;;3.28;;
51612;SDS011;37694;51.748;14.326;2022-12-11T05:10:36;3.30;;;3.00;;
51612;SDS011;37694;51.748;14.326;2022-12-11T05:13:02;3.63;;;3.22;;
51612;SDS011;37694;51.748;14.326;2022-12-11T05:15:28;3.85;;;2.92;;
51612;SDS011;37694;51.748;14.326;2022-12-11T05:17:53;3.30;;;3.05;;
51612;SDS011;37694;51.748;14.326;2022-12-11T05:20:19;3.28;;;2.97;;
51612;SDS011;37694;51.748;14.326;2022-12-11T05:22:44;3.58;;;2.97;;
51612;SDS011;37694;51.748;14.326;2022-12-11T05:25:10;3.22;;;2.92;;
51612;SDS011;37694;51.748;14.326;2022-12-11T05:27:36;3.88;;;2.78;;
51612;SDS011;37694;51.748;14.326;2022-12-11T05:30:02;3.47;;;3.17;;
51612;SDS011;37694;51.748;14.326;2022-12-11T05:32:28;4.85;;;3.40;;
51612;SDS011;37694;51.748;14.326;2022-12-11T05:34:53;3.53;;;3.22;;
51612;SDS011;37694;51.748;14.326;2022-12-11T05:37:19;3.45;;;3.15;;
51612;SDS011;37694;51.748;14.326;2022-12-11T05:39:45;3.00;;;2.80;;
51612;SDS011;37694;51.748;14.326;2022-12-11T05:42:11;3.22;;;2.92;;
51612;SDS011;37694;51.748;14.326;2022-12-11T05:44:36;3.38;;;2.85;;
51612;SDS011;37694;51.748;14.326;2022-12-11T05:47:02;3.38;;;3.08;;
51612;SDS011;37694;51.748;14.326;2022-12-11T05:49:28;3.38;;;2.97;;
51612;SDS011;37694;51.748;14.326;2022-12-11T05:51:53;3.85;;;3.38;;
51612;SDS011;37694;51.748;14.326;2022-12-11T05:54:19;3.13;;;2.83;;
51612;SDS011;37694;51.748;14.326;2022-12-11T05:56:44;3.22;;;2.92;;
51612;SDS011;37694;51.748;14.326;2022-12-11T05:59:10;4.25;;;2.90;;
51612;SDS011;37694;51.748;14.326;2022-12-11T06:01:37;3.50;;;3.13;;
51612;SDS011;37694;51.748;14.326;2022-12-11T06:04:05;3.40;;;3.10;;
51612;SDS011;37694;51.748;14.326;2022-12-11T06:06:32;3.30;;;3.00;;
51612;SDS011;37694;51.748;14.326;2022-12-11T06:08:58;3.53;;;3.13;;
51612;SDS011;37694;51.748;14.326;2022-12-11T06:11:26;3.45;;;3.05;;
51612;SDS011;37694;51.748;14.326;2022-12-11T06:13:53;3.75;;;3.28;;
51612;SDS011;37694;51.748;14.326;2022-12-11T06:16:19;3.47;;;2.47;;
51612;SDS011;37694;51.748;14.326;2022-12-11T06:18:46;4.82;;;2.95;;
51612;SDS011;37694;51.748;14.326;2022-12-11T06:23:40;3.03;;;2.83;;
51612;SDS011;37694;51.748;14.326;2022-12-11T06:26:08;3.50;;;2.90;;
51612;SDS011;37694;51.748;14.326;2022-12-11T06:28:34;5.07;;;2.78;;
51612;SDS011;37694;51.748;14.326;2022-12-11T06:31:00;4.10;;;2.97;;
51612;SDS011;37694;51.748;14.326;2022-12-11T06:33:26;5.45;;;2.78;;
51612;SDS011;37694;51.748;14.326;2022-12-11T06:35:52;3.08;;;2.78;;
51612;SDS011;37694;51.748;14.326;2022-12-11T06:38:18;5.75;;;2.83;;
51612;SDS011;37694;51.748;14.326;2022-12-11T06:40:44;2.45;;;2.25;;
51612;SDS011;37694;51.748;14.326;2022-12-11T06:43:09;3.88;;;2.80;;
51612;SDS011;37694;51.748;14.326;2022-12-11T06:45:35;2.80;;;2.60;;
51612;SDS011;37694;51.748;14.326;2022-12-11T06:48:02;3.63;;;2.47;;
51612;SDS011;37694;51.748;14.326;2022-12-11T06:50:28;3.10;;;2.72;;
51612;SDS011;37694;51.748;14.326;2022-12-11T06:52:55;3.20;;;2.80;;
51612;SDS011;37694;51.748;14.326;2022-12-11T06:55:21;2.72;;;2.50;;
51612;SDS011;37694;51.748;14.326;2022-12-11T06:57:47;2.90;;;2.70;;
51612;SDS011;37694;51.748;14.326;2022-12-11T07:00:13;2.80;;;2.60;;
51612;SDS011;37694;51.748;14.326;2022-12-11T07:02:39;2.70;;;2.50;;
51612;SDS011;37694;51.748;14.326;2022-12-11T07:05:05;5.75;;;2.75;;
51612;SDS011;37694;51.748;14.326;2022-12-11T07:07:31;4.43;;;2.75;;
51612;SDS011;37694;51.748;14.326;2022-12-11T07:09:57;2.50;;;2.25;;
51612;SDS011;37694;51.748;14.326;2022-12-11T07:12:22;3.10;;;2.80;;
51612;SDS011;37694;51.748;14.326;2022-12-11T07:14:48;8.00;;;2.33;;
51612;SDS011;37694;51.748;14.326;2022-12-11T07:17:14;6.32;;;3.10;;
51612;SDS011;37694;51.748;14.326;2022-12-11T07:19:39;4.43;;;2.70;;
51612;SDS011;37694;51.748;14.326;2022-12-11T07:22:05;7.65;;;2.75;;
51612;SDS011;37694;51.748;14.326;2022-12-11T07:24:31;6.93;;;2.53;;
51612;SDS011;37694;51.748;14.326;2022-12-11T07:26:56;9.55;;;2.75;;
51612;SDS011;37694;51.748;14.326;2022-12-11T07:29:22;2.85;;;2.53;;
51612;SDS011;37694;51.748;14.326;2022-12-11T07:31:48;5.07;;;2.30;;
51612;SDS011;37694;51.748;14.326;2022-12-11T07:34:14;6.22;;;2.50;;
51612;SDS011;37694;51.748;14.326;2022-12-11T07:36:40;5.43;;;2.53;;
51612;SDS011;37694;51.748;14.326;2022-12-11T07:39:07;4.32;;;2.35;;
51612;SDS011;37694;51.748;14.326;2022-12-11T07:41:35;4.65;;;2.92;;
51612;SDS011;37694;51.748;14.326;2022-12-11T07:44:01;6.07;;;2.72;;
51612;SDS011;37694;51.748;14.326;2022-12-11T07:46:27;3.88;;;2.38;;
51612;SDS011;37694;51.748;14.326;2022-12-11T07:48:55;9.27;;;3.30;;
51612;SDS011;37694;51.748;14.326;2022-12-11T07:53:52;2.88;;;2.40;;
51612;SDS011;37694;51.748;14.326;2022-12-11T07:56:19;10.52;;;2.95;;
51612;SDS011;37694;51.748;14.326;2022-12-11T07:58:45;11.85;;;3.00;;
51612;SDS011;37694;51.748;14.326;2022-12-11T08:01:12;5.43;;;2.70;;
51612;SDS011;37694;51.748;14.326;2022-12-11T08:03:42;3.53;;;2.42;;
51612;SDS011;37694;51.748;14.326;2022-12-11T08:06:08;2.80;;;2.28;;
51612;SDS011;37694;51.748;14.326;2022-12-11T08:08:34;5.60;;;2.33;;
51612;SDS011;37694;51.748;14.326;2022-12-11T08:11:01;6.40;;;2.38;;
51612;SDS011;37694;51.748;14.326;2022-12-11T08:13:30;5.40;;;2.50;;
51612;SDS011;37694;51.748;14.326;2022-12-11T08:15:57;4.78;;;2.80;;
51612;SDS011;37694;51.748;14.326;2022-12-11T08:18:23;8.27;;;2.45;;
51612;SDS011;37694;51.748;14.326;2022-12-11T08:20:49;12.18;;;2.88;;
51612;SDS011;37694;51.748;14.326;2022-12-11T08:23:14;12.18;;;2.60;;
51612;SDS011;37694;51.748;14.326;2022-12-11T08:25:40;6.05;;;2.95;;
51612;SDS011;37694;51.748;14.326;2022-12-11T08:28:06;11.75;;;2.58;;
51612;SDS011;37694;51.748;14.326;2022-12-11T08:30:32;8.88;;;3.00;;
51612;SDS011;37694;51.748;14.326;2022-12-11T08:32:57;11.05;;;2.50;;
51612;SDS011;37694;51.748;14.326;2022-12-11T08:35:24;9.20;;;2.50;;
51612;SDS011;37694;51.748;14.326;2022-12-11T08:37:50;6.18;;;2.58;;
51612;SDS011;37694;51.748;14.326;2022-12-11T08:40:15;7.00;;;2.45;;
51612;SDS011;37694;51.748;14.326;2022-12-11T08:42:41;3.47;;;2.20;;
51612;SDS011;37694;51.748;14.326;2022-12-11T08:45:07;3.97;;;2.92;;
51612;SDS011;37694;51.748;14.326;2022-12-11T08:47:33;7.25;;;2.40;;
51612;SDS011;37694;51.748;14.326;2022-12-11T08:50:00;18.40;;;3.17;;
51612;SDS011;37694;51.748;14.326;2022-12-11T08:52:26;14.15;;;3.00;;
51612;SDS011;37694;51.748;14.326;2022-12-11T08:54:52;7.63;;;2.83;;
51612;SDS011;37694;51.748;14.326;2022-12-11T08:57:18;16.90;;;3.20;;
51612;SDS011;37694;51.748;14.326;2022-12-11T08:59:43;7.20;;;2.92;;
51612;SDS011;37694;51.748;14.326;2022-12-11T09:02:12;5.10;;;2.50;;
51612;SDS011;37694;51.748;14.326;2022-12-11T09:04:38;8.50;;;2.70;;
51612;SDS011;37694;51.748;14.326;2022-12-11T09:07:04;11.43;;;2.67;;
51612;SDS011;37694;51.748;14.326;2022-12-11T09:09:29;18.42;;;2.85;;
51612;SDS011;37694;51.748;14.326;2022-12-11T09:11:55;18.42;;;3.28;;
51612;SDS011;37694;51.748;14.326;2022-12-11T09:14:21;10.52;;;3.00;;
51612;SDS011;37694;51.748;14.326;2022-12-11T09:16:47;15.75;;;2.85;;
51612;SDS011;37694;51.748;14.326;2022-12-11T09:19:13;12.68;;;2.97;;
51612;SDS011;37694;51.748;14.326;2022-12-11T09:21:40;9.13;;;3.20;;
51612;SDS011;37694;51.748;14.326;2022-12-11T09:24:07;10.30;;;2.83;;
51612;SDS011;37694;51.748;14.326;2022-12-11T09:26:34;11.88;;;4.03;;
51612;SDS011;37694;51.748;14.326;2022-12-11T09:29:01;7.97;;;2.80;;
51612;SDS011;37694;51.748;14.326;2022-12-11T09:31:29;11.40;;;3.25;;
51612;SDS011;37694;51.748;14.326;2022-12-11T09:33:59;8.40;;;3.10;;
51612;SDS011;37694;51.748;14.326;2022-12-11T09:36:29;10.35;;;2.95;;
51612;SDS011;37694;51.748;14.326;2022-12-11T09:38:58;5.75;;;2.40;;
51612;SDS011;37694;51.748;14.326;2022-12-11T09:46:39;6.82;;;2.75;;
51612;SDS011;37694;51.748;14.326;2022-12-11T09:49:11;5.32;;;3.42;;
51612;SDS011;37694;51.748;14.326;2022-12-11T09:52:07;6.57;;;2.53;;
51612;SDS011;37694;51.748;14.326;2022-12-11T09:54:42;7.03;;;2.88;;
51612;SDS011;37694;51.748;14.326;2022-12-11T09:57:17;9.90;;;2.72;;
51612;SDS011;37694;51.748;14.326;2022-12-11T10:05:44;4.05;;;2.60;;
51612;SDS011;37694;51.748;14.326;2022-12-11T10:08:31;8.35;;;2.53;;
51612;SDS011;37694;51.748;14.326;2022-12-11T10:17:30;6.88;;;3.03;;
51612;SDS011;37694;51.748;14.326;2022-12-11T10:20:02;10.80;;;4.45;;
51612;SDS011;37694;51.748;14.326;2022-12-11T10:22:42;14.50;;;3.83;;
51612;SDS011;37694;51.748;14.326;2022-12-11T10:25:13;18.83;;;7.47;;
51612;SDS011;37694;51.748;14.326;2022-12-11T10:27:45;18.63;;;8.95;;
51612;SDS011;37694;51.748;14.326;2022-12-11T10:30:15;23.23;;;9.95;;
51612;SDS011;37694;51.748;14.326;2022-12-11T10:33:05;24.83;;;8.65;;
51612;SDS011;37694;51.748;14.326;2022-12-11T10:40:39;11.48;;;5.45;;
51612;SDS011;37694;51.748;14.326;2022-12-11T10:43:11;7.53;;;5.28;;
51612;SDS011;37694;51.748;14.326;2022-12-11T10:45:37;11.32;;;5.68;;
51612;SDS011;37694;51.748;14.326;2022-12-11T10:48:04;10.02;;;4.97;;
51612;SDS011;37694;51.748;14.326;2022-12-11T10:50:35;10.07;;;4.22;;
51612;SDS011;37694;51.748;14.326;2022-12-11T10:53:01;10.85;;;4.10;;
51612;SDS011;37694;51.748;14.326;2022-12-11T10:55:28;10.05;;;4.65;;
51612;SDS011;37694;51.748;14.326;2022-12-11T10:58:03;9.23;;;3.92;;
51612;SDS011;37694;51.748;14.326;2022-12-11T11:00:39;7.90;;;4.63;;
51612;SDS011;37694;51.748;14.326;2022-12-11T11:03:22;18.67;;;5.20;;
51612;SDS011;37694;51.748;14.326;2022-12-11T11:05:49;5.82;;;3.40;;
51612;SDS011;37694;51.748;14.326;2022-12-11T11:08:46;10.20;;;4.25;;
51612;SDS011;37694;51.748;14.326;2022-12-11T11:13:45;9.25;;;4.07;;
51612;SDS011;37694;51.748;14.326;2022-12-11T11:16:11;12.57;;;5.20;;
51612;SDS011;37694;51.748;14.326;2022-12-11T11:18:39;7.88;;;4.53;;
51612;SDS011;37694;51.748;14.326;2022-12-11T11:21:15;7.80;;;4.80;;
51612;SDS011;37694;51.748;14.326;2022-12-11T11:23:43;7.50;;;5.00;;
51612;SDS011;37694;51.748;14.326;2022-12-11T11:26:09;11.80;;;4.90;;
51612;SDS011;37694;51.748;14.326;2022-12-11T11:28:36;9.05;;;5.47;;
51612;SDS011;37694;51.748;14.326;2022-12-11T11:31:06;9.35;;;5.60;;
51612;SDS011;37694;51.748;14.326;2022-12-11T11:36:25;13.35;;;5.25;;
51612;SDS011;37694;51.748;14.326;2022-12-11T11:39:11;7.97;;;5.05;;
51612;SDS011;37694;51.748;14.326;2022-12-11T11:44:40;10.98;;;5.00;;
51612;SDS011;37694;51.748;14.326;2022-12-11T11:47:16;7.25;;;4.82;;
51612;SDS011;37694;51.748;14.326;2022-12-11T11:55:02;8.48;;;5.10;;
51612;SDS011;37694;51.748;14.326;2022-12-11T12:00:23;6.65;;;4.95;;
51612;SDS011;37694;51.748;14.326;2022-12-11T12:03:03;9.23;;;5.53;;
51612;SDS011;37694;51.748;14.326;2022-12-11T12:17:36;9.25;;;5.68;;
51612;SDS011;37694;51.748;14.326;2022-12-11T12:26:11;11.00;;;5.95;;
51612;SDS011;37694;51.748;14.326;2022-12-11T12:48:25;9.60;;;5.47;;
51612;SDS011;37694;51.748;14.326;2022-12-11T12:50:51;6.65;;;5.60;;
51612;SDS011;37694;51.748;14.326;2022-12-11T12:53:18;7.38;;;6.18;;
51612;SDS011;37694;51.748;14.326;2022-12-11T12:55:47;7.30;;;6.20;;
51612;SDS011;37694;51.748;14.326;2022-12-11T13:03:34;10.05;;;5.85;;
51612;SDS011;37694;51.748;14.326;2022-12-11T13:06:12;11.27;;;5.80;;
51612;SDS011;37694;51.748;14.326;2022-12-11T13:08:47;9.05;;;6.25;;
51612;SDS011;37694;51.748;14.326;2022-12-11T13:11:16;6.78;;;4.78;;
51612;SDS011;37694;51.748;14.326;2022-12-11T13:13:47;11.25;;;4.80;;
51612;SDS011;37694;51.748;14.326;2022-12-11T13:16:36;19.55;;;5.15;;
51612;SDS011;37694;51.748;14.326;2022-12-11T13:24:27;11.05;;;5.28;;
51612;SDS011;37694;51.748;14.326;2022-12-11T13:26:54;9.63;;;5.03;;
51612;SDS011;37694;51.748;14.326;2022-12-11T13:34:50;14.75;;;4.78;;
51612;SDS011;37694;51.748;14.326;2022-12-11T13:40:14;7.47;;;5.13;;
51612;SDS011;37694;51.748;14.326;2022-12-11T13:45:20;7.70;;;4.55;;
51612;SDS011;37694;51.748;14.326;2022-12-11T13:47:56;8.35;;;4.80;;
51612;SDS011;37694;51.748;14.326;2022-12-11T13:50:25;7.25;;;4.35;;
51612;SDS011;37694;51.748;14.326;2022-12-11T13:52:54;25.63;;;5.18;;
51612;SDS011;37694;51.748;14.326;2022-12-11T13:55:29;12.93;;;4.63;;
51612;SDS011;37694;51.748;14.326;2022-12-11T13:57:57;9.13;;;4.65;;
51612;SDS011;37694;51.748;14.326;2022-12-11T14:00:24;8.93;;;5.35;;
51612;SDS011;37694;51.748;14.326;2022-12-11T14:02:53;8.38;;;5.45;;
51612;SDS011;37694;51.748;14.326;2022-12-11T14:05:22;10.10;;;4.95;;
51612;SDS011;37694;51.748;14.326;2022-12-11T14:07:49;9.05;;;4.85;;
51612;SDS011;37694;51.748;14.326;2022-12-11T14:10:24;6.32;;;4.72;;
51612;SDS011;37694;51.748;14.326;2022-12-11T14:15:23;8.05;;;4.65;;
51612;SDS011;37694;51.748;14.326;2022-12-11T14:17:50;8.50;;;4.53;;
51612;SDS011;37694;51.748;14.326;2022-12-11T14:20:23;16.70;;;5.32;;
51612;SDS011;37694;51.748;14.326;2022-12-11T14:23:02;11.48;;;4.40;;
51612;SDS011;37694;51.748;14.326;2022-12-11T14:25:29;9.55;;;4.72;;
51612;SDS011;37694;51.748;14.326;2022-12-11T14:27:55;8.80;;;4.90;;
51612;SDS011;37694;51.748;14.326;2022-12-11T14:30:22;7.40;;;4.47;;
51612;SDS011;37694;51.748;14.326;2022-12-11T14:32:54;10.63;;;4.55;;
51612;SDS011;37694;51.748;14.326;2022-12-11T14:35:27;5.07;;;4.57;;
51612;SDS011;37694;51.748;14.326;2022-12-11T14:37:55;5.70;;;4.80;;
51612;SDS011;37694;51.748;14.326;2022-12-11T14:40:25;8.35;;;4.35;;
51612;SDS011;37694;51.748;14.326;2022-12-11T14:42:57;11.60;;;5.10;;
51612;SDS011;37694;51.748;14.326;2022-12-11T14:45:29;12.00;;;4.80;;
51612;SDS011;37694;51.748;14.326;2022-12-11T14:48:04;13.55;;;4.82;;
51612;SDS011;37694;51.748;14.326;2022-12-11T14:50:38;10.65;;;5.30;;
51612;SDS011;37694;51.748;14.326;2022-12-11T14:53:42;14.05;;;5.22;;
51612;SDS011;37694;51.748;14.326;2022-12-11T14:56:02;8.70;;;5.13;;
51612;SDS011;37694;51.748;14.326;2022-12-11T14:58:31;24.05;;;5.35;;
51612;SDS011;37694;51.748;14.326;2022-12-11T15:01:03;9.10;;;4.80;;
51612;SDS011;37694;51.748;14.326;2022-12-11T15:03:32;20.33;;;5.10;;
51612;SDS011;37694;51.748;14.326;2022-12-11T15:05:59;18.17;;;5.15;;
51612;SDS011;37694;51.748;14.326;2022-12-11T15:08:27;8.98;;;4.47;;
51612;SDS011;37694;51.748;14.326;2022-12-11T15:11:13;11.65;;;5.10;;
51612;SDS011;37694;51.748;14.326;2022-12-11T15:13:51;13.60;;;5.57;;
51612;SDS011;37694;51.748;14.326;2022-12-11T15:16:22;19.73;;;6.22;;
51612;SDS011;37694;51.748;14.326;2022-12-11T15:18:51;18.65;;;5.40;;
51612;SDS011;37694;51.748;14.326;2022-12-11T15:21:18;11.70;;;5.00;;
51612;SDS011;37694;51.748;14.326;2022-12-11T15:23:55;15.18;;;5.53;;
51612;SDS011;37694;51.748;14.326;2022-12-11T15:26:38;22.75;;;5.82;;
51612;SDS011;37694;51.748;14.326;2022-12-11T15:34:55;25.30;;;5.05;;
51612;SDS011;37694;51.748;14.326;2022-12-11T15:37:24;15.63;;;5.15;;
51612;SDS011;37694;51.748;14.326;2022-12-11T15:39:54;17.25;;;5.47;;
51612;SDS011;37694;51.748;14.326;2022-12-11T15:42:23;16.17;;;5.28;;
51612;SDS011;37694;51.748;14.326;2022-12-11T15:44:59;17.70;;;5.60;;
51612;SDS011;37694;51.748;14.326;2022-12-11T15:47:27;14.20;;;4.60;;
51612;SDS011;37694;51.748;14.326;2022-12-11T15:52:53;11.38;;;4.50;;
51612;SDS011;37694;51.748;14.326;2022-12-11T15:55:21;13.32;;;4.95;;
51612;SDS011;37694;51.748;14.326;2022-12-11T15:57:55;11.25;;;4.85;;
51612;SDS011;37694;51.748;14.326;2022-12-11T16:00:31;15.82;;;4.95;;
51612;SDS011;37694;51.748;14.326;2022-12-11T16:02:57;8.15;;;4.90;;
51612;SDS011;37694;51.748;14.326;2022-12-11T16:05:23;10.35;;;5.10;;
51612;SDS011;37694;51.748;14.326;2022-12-11T16:07:49;14.75;;;5.03;;
51612;SDS011;37694;51.748;14.326;2022-12-11T16:10:17;11.18;;;4.70;;
51612;SDS011;37694;51.748;14.326;2022-12-11T16:12:44;10.75;;;4.55;;
51612;SDS011;37694;51.748;14.326;2022-12-11T16:15:11;12.52;;;4.20;;
51612;SDS011;37694;51.748;14.326;2022-12-11T16:17:38;8.00;;;4.57;;
51612;SDS011;37694;51.748;14.326;2022-12-11T16:20:04;9.57;;;4.80;;
51612;SDS011;37694;51.748;14.326;2022-12-11T16:22:30;7.43;;;4.80;;
51612;SDS011;37694;51.748;14.326;2022-12-11T16:24:56;9.23;;;4.70;;
51612;SDS011;37694;51.748;14.326;2022-12-11T16:27:22;7.20;;;4.60;;
51612;SDS011;37694;51.748;14.326;2022-12-11T16:29:48;9.77;;;4.57;;
51612;SDS011;37694;51.748;14.326;2022-12-11T16:32:14;7.40;;;4.38;;
51612;SDS011;37694;51.748;14.326;2022-12-11T16:34:40;7.93;;;4.38;;
51612;SDS011;37694;51.748;14.326;2022-12-11T16:37:06;12.75;;;4.75;;
51612;SDS011;37694;51.748;14.326;2022-12-11T16:39:32;6.93;;;4.43;;
51612;SDS011;37694;51.748;14.326;2022-12-11T16:41:59;8.90;;;4.53;;
51612;SDS011;37694;51.748;14.326;2022-12-11T16:44:24;4.97;;;3.53;;
51612;SDS011;37694;51.748;14.326;2022-12-11T16:46:51;6.60;;;4.60;;
51612;SDS011;37694;51.748;14.326;2022-12-11T16:49:18;8.65;;;4.00;;
51612;SDS011;37694;51.748;14.326;2022-12-11T16:51:44;11.35;;;3.67;;
51612;SDS011;37694;51.748;14.326;2022-12-11T16:54:10;13.10;;;4.60;;